Time;durP1;ratioP1;P1;durP2;ratioP2;P2;SDS_P1;SDS_P2;PMS_P1;PMS_P2;Temp;Humidity;BMP_temperature;BMP_pressure;BME280_temperature;BME280_humidity;BME280_pressure;Samples;Min_cycle;Max_cycle;Signal;HPM_P1;HPM_P2
2022/04/06 00:01:48;;;;;;;1.20;0.88;;;;;;;-2.87;91.13;97968.19;5081330;28;20651;-73
2022/04/06 00:04:14;;;;;;;2.40;0.90;;;;;;;-2.88;90.40;97977.31;5095618;28;20036;-73
2022/04/06 00:06:40;;;;;;;1.35;0.60;;;;;;;-2.86;90.08;97980.53;5105027;28;20031;-73
2022/04/06 00:09:06;;;;;;;2.15;0.80;;;;;;;-2.84;90.16;97978.41;5104926;28;20031;-73
2022/04/06 00:11:31;;;;;;;1.52;0.80;;;;;;;-2.84;89.92;97982.97;5093576;28;20047;-73
2022/04/06 00:13:57;;;;;;;2.38;1.23;;;;;;;-2.89;89.85;97997.16;5108903;28;20031;-74
2022/04/06 00:16:23;;;;;;;4.45;1.08;;;;;;;-2.90;89.49;97997.44;5095303;28;20036;-72
2022/04/06 00:18:49;;;;;;;0.88;0.80;;;;;;;-2.88;89.50;97998.78;5090837;28;20549;-74
2022/04/06 00:21:14;;;;;;;0.88;0.70;;;;;;;-2.85;89.31;98005.50;5109874;28;20104;-73
2022/04/06 00:23:40;;;;;;;0.47;0.47;;;;;;;-2.89;89.31;97997.16;5110606;28;20571;-73
2022/04/06 00:26:06;;;;;;;1.27;0.90;;;;;;;-2.95;89.50;98008.94;5110208;28;20066;-73
2022/04/06 00:28:31;;;;;;;1.25;0.70;;;;;;;-2.98;88.91;98003.25;5085289;28;20040;-72
2022/04/06 00:30:57;;;;;;;1.08;0.70;;;;;;;-3.01;89.07;98023.38;5108556;28;20036;-74
2022/04/06 00:33:23;;;;;;;0.85;0.80;;;;;;;-2.98;89.60;98014.00;5103353;28;20065;-72
2022/04/06 00:35:48;;;;;;;2.38;0.65;;;;;;;-3.02;88.67;98029.81;5091431;28;20047;-72
2022/04/06 00:38:14;;;;;;;0.85;0.80;;;;;;;-3.04;88.73;98029.25;5088109;28;20044;-73
2022/04/06 00:40:40;;;;;;;1.90;0.70;;;;;;;-3.05;89.16;98028.44;5090679;28;20117;-72
2022/04/06 00:43:07;;;;;;;0.80;0.80;;;;;;;-3.03;88.54;98034.34;5081504;28;20039;-73
2022/04/06 00:45:33;;;;;;;1.05;0.75;;;;;;;-3.07;88.61;98044.00;5072327;28;20570;-72
2022/04/06 00:47:59;;;;;;;0.80;0.80;;;;;;;-3.10;88.29;98046.38;5076448;28;20040;-74
2022/04/06 00:50:25;;;;;;;1.25;0.98;;;;;;;-3.12;88.81;98046.66;5091373;28;20047;-73
2022/04/06 00:52:55;;;;;;;2.47;1.00;;;;;;;-3.13;88.35;98054.91;5092398;28;20036;-73
2022/04/06 00:55:21;;;;;;;3.42;1.27;;;;;;;-3.15;87.76;98057.06;5090399;28;20067;-74
2022/04/06 00:57:48;;;;;;;1.08;0.80;;;;;;;-3.19;87.23;98046.03;5099059;28;20040;-74
2022/04/06 01:00:15;;;;;;;1.42;0.70;;;;;;;-3.23;86.54;98057.53;5091928;28;20545;-74
2022/04/06 01:02:41;;;;;;;0.50;0.38;;;;;;;-3.27;85.70;98054.56;5110613;28;20047;-73
2022/04/06 01:05:07;;;;;;;0.93;0.80;;;;;;;-3.31;85.32;98071.38;5091450;28;20044;-73
2022/04/06 01:07:33;;;;;;;1.25;0.90;;;;;;;-3.34;84.89;98060.09;5095606;28;20505;-73
2022/04/06 01:09:59;;;;;;;1.65;0.73;;;;;;;-3.34;84.74;98064.66;5104312;28;20039;-73
2022/04/06 01:12:26;;;;;;;2.00;0.88;;;;;;;-3.37;84.50;98074.03;5081228;28;20039;-73
2022/04/06 01:14:56;;;;;;;1.08;0.70;;;;;;;-3.37;83.97;98074.03;5090515;28;20039;-73
2022/04/06 01:17:21;;;;;;;1.02;0.63;;;;;;;-3.38;83.73;98085.81;5091742;28;20039;-73
2022/04/06 01:19:47;;;;;;;0.80;0.68;;;;;;;-3.42;84.09;98083.91;5073151;28;20097;-73
2022/04/06 01:22:15;;;;;;;2.97;0.90;;;;;;;-3.44;84.37;98086.03;5101114;28;20606;-73
2022/04/06 01:24:42;;;;;;;2.03;0.82;;;;;;;-3.45;83.83;98084.41;5106419;28;20047;-73
2022/04/06 01:27:08;;;;;;;0.95;0.60;;;;;;;-3.49;83.30;98097.50;5102173;28;20039;-73
2022/04/06 01:29:34;;;;;;;1.60;0.82;;;;;;;-3.55;83.23;98101.19;5113615;28;20130;-73
2022/04/06 01:32:10;;;;;;;2.33;0.80;;;;;;;-3.55;83.53;98111.91;5111910;28;20043;-74
2022/04/06 01:34:36;;;;;;;2.05;1.05;;;;;;;-3.54;83.36;98108.16;5109037;28;20039;-73
2022/04/06 01:37:04;;;;;;;0.80;0.80;;;;;;;-3.51;84.07;98117.56;5113473;28;20040;-73
2022/04/06 01:39:34;;;;;;;1.23;0.93;;;;;;;-3.49;83.99;98124.28;5075986;28;20506;-73
2022/04/06 01:41:59;;;;;;;2.00;1.05;;;;;;;-3.46;83.58;98120.34;5075813;28;20040;-73
2022/04/06 01:44:25;;;;;;;1.45;0.88;;;;;;;-3.43;84.49;98123.31;5093705;28;20094;-73
2022/04/06 01:46:51;;;;;;;1.63;0.70;;;;;;;-3.43;84.69;98126.00;5098701;28;20394;-73
2022/04/06 01:52:17;;;;;;;2.35;1.00;;;;;;;-3.47;84.20;98122.19;5067425;28;20422;-74
2022/04/06 01:54:44;;;;;;;3.03;1.05;;;;;;;-3.51;84.43;98110.34;5089998;28;20062;-74
2022/04/06 01:57:11;;;;;;;1.38;1.10;;;;;;;-3.54;84.77;98126.94;5075076;28;20508;-74
2022/04/06 01:59:36;;;;;;;1.95;0.88;;;;;;;-3.56;84.20;98115.66;5075273;28;20494;-73
2022/04/06 02:02:03;;;;;;;1.00;0.90;;;;;;;-3.57;83.37;98118.59;5094689;28;20042;-74
2022/04/06 02:04:28;;;;;;;1.10;0.65;;;;;;;-3.60;82.84;98127.13;5094604;28;20028;-73
2022/04/06 02:06:54;;;;;;;1.15;1.02;;;;;;;-3.62;82.77;98134.63;5093375;28;20460;-73
2022/04/06 02:09:20;;;;;;;1.40;1.00;;;;;;;-3.63;nan;98136.50;5103468;28;20031;-73
2022/04/06 02:11:46;;;;;;;1.52;1.00;;;;;;;-3.60;82.91;98136.00;5111564;28;20035;-73
2022/04/06 02:14:13;;;;;;;2.22;1.35;;;;;;;-3.60;82.80;98138.66;5083542;28;20032;-74
2022/04/06 02:16:39;;;;;;;1.42;0.98;;;;;;;-3.58;82.65;98135.72;5093200;28;20032;-73
2022/04/06 02:19:05;;;;;;;1.30;1.00;;;;;;;-3.59;81.95;98147.53;5084617;28;20058;-74
2022/04/06 02:21:31;;;;;;;2.45;0.93;;;;;;;-3.61;81.51;98139.72;5094646;28;20028;-72
2022/04/06 02:23:57;;;;;;;0.80;0.80;;;;;;;-3.65;81.83;98138.59;5074533;28;20454;-73
2022/04/06 02:26:22;;;;;;;2.25;0.80;;;;;;;-3.68;80.31;98149.81;5094320;28;20051;-73
2022/04/06 02:28:48;;;;;;;1.52;1.00;;;;;;;-3.69;79.78;98140.16;5104861;28;20478;-72
2022/04/06 02:31:13;;;;;;;1.45;0.85;;;;;;;-3.72;80.33;98148.69;5102760;28;20044;-73
2022/04/06 02:33:39;;;;;;;1.08;0.90;;;;;;;-3.74;79.06;98148.16;5111664;28;20036;-72
2022/04/06 02:36:05;;;;;;;2.42;0.80;;;;;;;-3.75;78.89;98149.19;5098669;28;20569;-73
2022/04/06 02:38:30;;;;;;;1.17;0.90;;;;;;;-3.79;79.14;98161.50;5081637;28;20043;-73
2022/04/06 02:40:56;;;;;;;1.63;0.80;;;;;;;-3.79;79.20;98162.31;5111100;28;20035;-73
2022/04/06 02:43:22;;;;;;;1.27;0.90;;;;;;;-3.81;79.20;98167.09;5106945;28;20058;-73
2022/04/06 02:45:48;;;;;;;2.25;0.70;;;;;;;-3.82;79.03;98165.44;5092333;28;20060;-73
2022/04/06 02:48:16;;;;;;;1.98;0.90;;;;;;;-3.81;79.07;98169.78;5100201;28;20040;-74
2022/04/06 02:50:42;;;;;;;0.95;0.68;;;;;;;-3.77;79.86;98167.41;5094799;28;20039;-73
2022/04/06 02:53:08;;;;;;;1.25;0.98;;;;;;;-3.76;79.19;98175.19;5074963;28;20056;-74
2022/04/06 02:55:33;;;;;;;1.23;0.73;;;;;;;-3.75;79.14;98176.00;5103075;28;20074;-73
2022/04/06 02:57:59;;;;;;;2.75;1.00;;;;;;;-3.73;79.42;98173.88;5092016;28;20070;-74
2022/04/06 03:00:24;;;;;;;0.80;0.80;;;;;;;-3.70;79.12;98186.78;5094330;28;20498;-74
2022/04/06 03:02:50;;;;;;;1.17;0.88;;;;;;;-3.71;79.06;98182.47;5091284;28;20035;-74
2022/04/06 03:05:16;;;;;;;0.75;0.70;;;;;;;-3.72;78.91;98178.19;5096893;28;20048;-73
2022/04/06 03:07:42;;;;;;;0.82;0.80;;;;;;;-3.71;78.87;98185.16;5101460;28;20071;-73
2022/04/06 03:10:08;;;;;;;1.02;0.90;;;;;;;-3.71;79.19;98193.19;5074789;28;20516;-73
2022/04/06 03:12:34;;;;;;;0.80;0.80;;;;;;;-3.75;79.50;98192.06;5098450;28;20040;-73
2022/04/06 03:14:59;;;;;;;1.25;0.73;;;;;;;-3.74;78.70;98188.34;5085310;28;20452;-73
2022/04/06 03:17:25;;;;;;;1.35;1.00;;;;;;;-3.74;79.17;98193.69;5092140;28;20079;-73
2022/04/06 03:19:51;;;;;;;0.70;0.68;;;;;;;-3.77;78.68;98196.88;5097979;28;20027;-74
2022/04/06 03:22:17;;;;;;;1.27;0.70;;;;;;;-3.75;79.66;98197.44;5089297;28;20043;-73
2022/04/06 03:24:47;;;;;;;1.13;0.70;;;;;;;-3.75;79.92;98200.94;5096991;28;20147;-74
2022/04/06 03:27:13;;;;;;;2.75;1.08;;;;;;;-3.75;80.09;98202.78;5107626;28;20048;-73
2022/04/06 03:29:40;;;;;;;2.00;0.70;;;;;;;-3.77;80.18;98204.91;5091921;28;20089;-74
2022/04/06 03:32:09;;;;;;;1.40;0.90;;;;;;;-3.79;80.20;98215.06;5091552;28;20127;-73
2022/04/06 03:34:35;;;;;;;0.63;0.63;;;;;;;-3.79;79.77;98213.22;5079488;28;20130;-72
2022/04/06 03:37:01;;;;;;;1.52;0.95;;;;;;;-3.79;80.03;98212.41;5092795;28;20066;-72
2022/04/06 03:39:27;;;;;;;2.33;0.60;;;;;;;-3.78;79.15;98214.81;5089708;28;20064;-73
2022/04/06 03:41:52;;;;;;;2.47;0.90;;;;;;;-3.78;78.69;98219.38;5105402;28;20046;-72
2022/04/06 03:44:18;;;;;;;2.25;0.80;;;;;;;-3.81;79.66;98230.59;5104770;28;20036;-73
2022/04/06 03:46:44;;;;;;;0.93;0.70;;;;;;;-3.84;79.55;98226.50;5092816;28;20028;-73
2022/04/06 03:49:09;;;;;;;0.82;0.60;;;;;;;-3.80;79.38;98227.66;5094723;28;20079;-74
2022/04/06 03:51:35;;;;;;;1.13;0.77;;;;;;;-3.77;78.52;98229.84;5104775;28;20036;-73
2022/04/06 03:54:01;;;;;;;0.82;0.82;;;;;;;-3.78;79.51;98227.41;5099405;28;20071;-72
2022/04/06 03:56:51;;;;;;;1.75;0.80;;;;;;;-3.76;79.39;98236.81;5095932;28;20043;-73
2022/04/06 03:59:17;;;;;;;1.70;0.70;;;;;;;-3.70;79.71;98233.13;5092132;28;20040;-73
2022/04/06 04:01:42;;;;;;;0.70;0.60;;;;;;;-3.61;79.89;98230.84;5081415;28;20506;-73
2022/04/06 04:04:10;;;;;;;2.40;0.70;;;;;;;-3.51;80.54;98235.50;5104086;28;20039;-73
2022/04/06 04:06:36;;;;;;;2.47;0.82;;;;;;;-3.29;79.28;98238.22;5095659;28;20157;-73
2022/04/06 04:09:03;;;;;;;0.98;0.75;;;;;;;-3.22;79.80;98242.31;5086676;28;20115;-73
2022/04/06 04:11:29;;;;;;;2.67;0.70;;;;;;;-3.19;79.82;98246.38;5076540;28;20254;-73
2022/04/06 04:13:54;;;;;;;1.27;0.93;;;;;;;-3.08;79.83;98245.44;5106223;28;20082;-73
2022/04/06 04:16:20;;;;;;;0.77;0.60;;;;;;;-2.92;79.02;98252.59;5111129;28;20127;-73
2022/04/06 04:18:46;;;;;;;1.00;0.90;;;;;;;-2.68;77.67;98252.28;5096942;28;20072;-72
2022/04/06 04:23:55;;;;;;;1.70;1.13;;;;;;;-1.91;78.02;98246.44;5086118;28;20038;-73
2022/04/06 04:26:21;;;;;;;1.50;1.02;;;;;;;-1.51;75.42;98253.97;5066290;28;20036;-73
2022/04/06 04:28:52;;;;;;;0.70;0.70;;;;;;;-1.10;73.68;98243.34;5088320;28;20106;-73
2022/04/06 04:31:18;;;;;;;4.00;0.88;;;;;;;-0.82;73.35;98252.88;5072268;28;20441;-73
2022/04/06 04:33:43;;;;;;;1.67;1.00;;;;;;;-0.36;73.26;98256.44;5073693;28;20546;-73
2022/04/06 04:36:09;;;;;;;0.85;0.60;;;;;;;0.01;71.64;98256.19;5096640;28;20498;-73
2022/04/06 04:38:36;;;;;;;2.45;0.73;;;;;;;0.03;69.18;98262.13;5092301;28;20071;-75
2022/04/06 04:41:03;;;;;;;1.88;0.80;;;;;;;0.15;70.84;98254.53;5075702;28;20176;-74
2022/04/06 04:43:29;;;;;;;0.55;0.55;;;;;;;-0.20;70.02;98254.56;5092901;28;20040;-73
2022/04/06 04:45:55;;;;;;;0.90;0.85;;;;;;;-0.65;70.75;98269.59;5090608;28;20048;-73
2022/04/06 04:48:20;;;;;;;2.53;0.70;;;;;;;-0.83;71.67;98257.44;5101663;28;20036;-72
2022/04/06 04:50:46;;;;;;;3.40;0.80;;;;;;;-0.95;70.86;98260.38;5092025;28;20032;-72
2022/04/06 04:53:12;;;;;;;1.40;0.60;;;;;;;-0.83;71.96;98252.06;5105837;28;20046;-74
2022/04/06 04:55:37;;;;;;;1.67;0.70;;;;;;;-0.44;72.60;98257.78;5111219;28;20140;-74
2022/04/06 04:58:03;;;;;;;2.88;0.75;;;;;;;0.01;72.41;98255.38;5095311;28;20664;-74
2022/04/06 05:00:28;;;;;;;1.42;1.00;;;;;;;0.51;72.95;98271.44;5093460;28;20521;-73
2022/04/06 05:02:54;;;;;;;1.17;0.80;;;;;;;0.99;72.16;98257.53;5105329;28;20509;-73
2022/04/06 05:05:20;;;;;;;2.05;0.70;;;;;;;1.31;69.92;98262.50;5096971;28;20067;-73
2022/04/06 05:07:46;;;;;;;1.02;0.82;;;;;;;1.78;70.59;98264.63;5108864;28;20040;-73
2022/04/06 05:10:11;;;;;;;1.92;0.80;;;;;;;2.28;69.74;98257.19;5103684;28;20081;-74
2022/04/06 05:12:37;;;;;;;1.60;0.80;;;;;;;2.66;66.41;98261.66;5087086;28;20483;-73
2022/04/06 05:15:06;;;;;;;1.17;0.93;;;;;;;2.83;66.78;98257.69;5085407;28;20042;-73
2022/04/06 05:17:34;;;;;;;2.47;1.48;;;;;;;3.30;65.56;98260.34;5097073;28;20032;-73
2022/04/06 05:19:59;;;;;;;0.75;0.75;;;;;;;3.28;63.35;98257.06;5110976;28;20387;-73
2022/04/06 05:22:25;;;;;;;1.27;0.85;;;;;;;3.57;63.37;98256.94;5088158;28;20051;-73
2022/04/06 05:24:51;;;;;;;1.08;0.80;;;;;;;4.00;65.39;98258.75;5093823;28;20066;-73
2022/04/06 05:27:17;;;;;;;2.22;0.90;;;;;;;4.47;63.48;98261.16;5075370;28;20105;-73
2022/04/06 05:29:47;;;;;;;1.38;0.90;;;;;;;4.73;64.03;98261.50;5110081;28;20556;-73
2022/04/06 05:32:13;;;;;;;2.15;1.13;;;;;;;5.10;64.02;98260.50;5107918;28;20059;-73
2022/04/06 05:34:39;;;;;;;1.83;1.25;;;;;;;5.03;61.43;98267.44;5094266;28;20036;-73
2022/04/06 05:37:05;;;;;;;1.08;0.80;;;;;;;5.19;63.23;98262.50;5097858;28;20054;-73
2022/04/06 05:39:30;;;;;;;0.98;0.80;;;;;;;5.53;61.19;98257.41;5112084;28;20071;-72
2022/04/06 05:41:56;;;;;;;2.15;0.95;;;;;;;5.82;62.77;98250.75;5100037;28;20066;-73
2022/04/06 05:44:22;;;;;;;1.42;0.80;;;;;;;6.05;62.00;98255.94;5111238;28;20089;-73
2022/04/06 05:46:48;;;;;;;0.80;0.80;;;;;;;6.41;62.11;98251.50;5102449;28;20518;-73
2022/04/06 05:49:13;;;;;;;2.13;0.73;;;;;;;6.86;61.21;98254.94;5093705;28;20127;-74
2022/04/06 05:51:39;;;;;;;1.25;0.93;;;;;;;7.18;61.06;98245.56;5066449;28;20404;-74
2022/04/06 05:54:04;;;;;;;2.22;0.80;;;;;;;7.48;59.33;98261.03;5102082;28;20048;-73
2022/04/06 05:56:31;;;;;;;0.98;0.80;;;;;;;7.67;57.85;98257.22;5093596;28;20044;-73
2022/04/06 05:58:56;;;;;;;3.10;1.00;;;;;;;7.62;57.20;98249.16;5093021;28;20096;-73
2022/04/06 06:01:22;;;;;;;1.90;1.00;;;;;;;7.50;55.78;98252.53;5100825;28;20031;-73
2022/04/06 06:03:48;;;;;;;0.77;0.77;;;;;;;7.34;56.63;98248.66;5091330;28;20077;-74
2022/04/06 06:06:14;;;;;;;2.90;1.02;;;;;;;7.35;56.40;98255.72;5107634;28;20073;-74
2022/04/06 06:08:39;;;;;;;0.95;0.90;;;;;;;7.40;54.53;98253.63;5046521;28;20068;-73
2022/04/06 06:11:05;;;;;;;2.10;1.05;;;;;;;7.27;52.83;98251.84;5101552;28;20044;-74
2022/04/06 06:13:31;;;;;;;1.55;0.80;;;;;;;7.31;54.08;98244.66;5097361;28;20039;-74
2022/04/06 06:15:57;;;;;;;1.10;0.80;;;;;;;7.63;52.01;98256.22;5095280;28;20050;-74
2022/04/06 06:18:24;;;;;;;2.95;1.00;;;;;;;7.23;51.83;98261.78;5113136;28;20036;-73
2022/04/06 06:20:50;;;;;;;1.70;0.90;;;;;;;6.81;51.56;98258.59;5099673;28;20080;-74
2022/04/06 06:23:15;;;;;;;2.33;1.13;;;;;;;6.15;52.05;98260.31;5074689;28;20046;-74
2022/04/06 06:25:41;;;;;;;2.53;1.25;;;;;;;5.87;53.81;98256.88;5107487;28;20050;-73
2022/04/06 06:28:08;;;;;;;2.13;1.00;;;;;;;5.40;53.76;98260.97;5112094;28;20047;-74
2022/04/06 06:30:33;;;;;;;2.83;1.00;;;;;;;4.91;54.22;98262.53;5085997;28;20040;-74
2022/04/06 06:32:59;;;;;;;4.28;1.55;;;;;;;4.49;54.72;98266.31;5108748;27;20046;-73
2022/04/06 06:35:25;;;;;;;3.05;1.40;;;;;;;4.03;55.81;98264.38;5105851;28;20051;-72
2022/04/06 06:37:52;;;;;;;3.42;1.50;;;;;;;3.35;57.03;98270.28;5106071;28;20043;-74
2022/04/06 06:40:19;;;;;;;1.67;1.40;;;;;;;2.83;58.28;98266.59;5092739;28;20063;-72
2022/04/06 06:42:45;;;;;;;1.98;1.30;;;;;;;2.52;59.13;98274.25;5076394;28;20040;-74
2022/04/06 06:45:11;;;;;;;2.05;1.63;;;;;;;2.22;60.62;98274.53;5103018;28;20502;-73
2022/04/06 06:47:40;;;;;;;2.15;1.70;;;;;;;2.15;61.04;98272.16;5097840;28;20074;-73
2022/04/06 06:50:07;;;;;;;2.50;2.28;;;;;;;2.16;61.54;98278.38;5099834;28;20078;-72
2022/04/06 06:52:34;;;;;;;2.85;2.55;;;;;;;2.09;61.04;98281.44;5095646;28;20044;-73
2022/04/06 06:55:05;;;;;;;3.80;2.67;;;;;;;1.68;61.49;98289.84;5092172;28;20040;-73
2022/04/06 06:57:31;;;;;;;2.40;2.00;;;;;;;1.55;62.54;98292.34;5082090;28;20044;-73
2022/04/06 06:59:57;;;;;;;3.03;2.15;;;;;;;1.60;63.09;98292.34;5112545;28;20043;-73
2022/04/06 07:02:23;;;;;;;3.47;2.08;;;;;;;1.58;63.46;98291.81;5112562;28;20046;-73
2022/04/06 07:04:49;;;;;;;4.18;2.08;;;;;;;1.55;63.54;98290.44;5112513;28;20043;-74
2022/04/06 07:07:14;;;;;;;3.45;2.05;;;;;;;1.57;63.44;98295.59;5096087;28;20131;-73
2022/04/06 07:09:40;;;;;;;2.50;1.73;;;;;;;1.56;63.36;98300.16;5091734;28;20127;-73
2022/04/06 07:12:06;;;;;;;2.35;1.52;;;;;;;1.49;63.23;98291.56;5091660;28;20448;-74
2022/04/06 07:14:32;;;;;;;5.32;1.83;;;;;;;1.57;63.67;98296.41;5073739;28;20561;-74
2022/04/06 07:17:01;;;;;;;3.65;1.60;;;;;;;1.43;63.45;98290.81;5090795;28;20135;-74
2022/04/06 07:19:26;;;;;;;2.53;1.67;;;;;;;1.46;64.20;98295.66;5091700;28;20043;-74
2022/04/06 07:21:52;;;;;;;4.50;1.67;;;;;;;1.56;64.14;98288.56;5088519;28;20031;-73
2022/04/06 07:24:18;;;;;;;3.88;1.70;;;;;;;1.72;64.45;98292.78;5111836;28;20039;-73
2022/04/06 07:26:44;;;;;;;2.45;1.60;;;;;;;1.83;63.56;98294.34;5093737;28;20051;-74
2022/04/06 07:29:11;;;;;;;2.38;1.63;;;;;;;1.93;63.24;98298.88;5111818;28;20570;-74
2022/04/06 07:31:41;;;;;;;1.80;1.50;;;;;;;2.04;63.12;98300.38;5111846;28;20521;-73
2022/04/06 07:34:06;;;;;;;3.08;1.20;;;;;;;2.22;62.84;98291.56;5111951;28;20043;-74
2022/04/06 07:36:35;;;;;;;3.30;1.45;;;;;;;2.31;62.29;98300.72;5110984;28;20035;-74
2022/04/06 07:39:04;;;;;;;2.30;1.55;;;;;;;2.93;61.99;98290.03;5093894;28;20035;-74
2022/04/06 07:41:30;;;;;;;2.42;1.45;;;;;;;3.57;60.83;98297.63;5076589;28;20039;-74
2022/04/06 07:43:55;;;;;;;2.05;1.27;;;;;;;4.29;59.40;98291.91;5111661;28;20115;-74
2022/04/06 07:46:21;;;;;;;1.85;1.30;;;;;;;4.73;57.27;98296.03;5102908;28;20122;-73
2022/04/06 07:48:47;;;;;;;2.08;1.08;;;;;;;4.50;56.04;98297.78;5091355;28;20036;-73
2022/04/06 07:51:12;;;;;;;2.88;1.40;;;;;;;4.20;56.19;98297.22;5092419;28;20040;-73
2022/04/06 07:53:38;;;;;;;3.88;1.25;;;;;;;4.12;56.38;98297.88;5056491;28;20517;-74
2022/04/06 07:56:05;;;;;;;2.35;1.20;;;;;;;3.88;56.05;98310.75;5056372;28;20056;-73
2022/04/06 07:58:30;;;;;;;2.63;1.13;;;;;;;3.72;57.31;98304.75;5091188;28;20036;-73
2022/04/06 08:01:14;;;;;;;3.05;1.38;;;;;;;3.69;56.99;98299.91;5090972;28;20096;-73
2022/04/06 08:03:40;;;;;;;2.42;1.25;;;;;;;3.67;57.50;98307.53;5090931;28;20040;-73
2022/04/06 08:06:06;;;;;;;2.33;1.55;;;;;;;3.55;57.14;98313.38;5081855;28;20043;-74
2022/04/06 08:08:33;;;;;;;1.42;1.10;;;;;;;3.47;58.18;98311.34;5110929;28;20047;-74
2022/04/06 08:11:20;;;;;;;2.03;1.20;;;;;;;3.35;58.25;98310.94;5111046;28;20082;-73
2022/04/06 08:14:06;;;;;;;3.77;1.40;;;;;;;2.97;57.96;98320.91;5111163;28;20128;-74
2022/04/06 08:16:50;;;;;;;1.67;1.20;;;;;;;2.46;58.69;98324.13;5111247;28;20055;-73
2022/04/06 08:19:17;;;;;;;1.35;1.10;;;;;;;2.37;58.99;98325.81;5092858;28;20039;-74
2022/04/06 08:21:42;;;;;;;1.98;1.15;;;;;;;2.41;59.94;98327.66;5105884;28;20035;-73
2022/04/06 08:24:08;;;;;;;3.20;1.35;;;;;;;2.42;59.73;98325.75;5092804;28;20036;-74
2022/04/06 08:26:52;;;;;;;1.90;1.25;;;;;;;2.41;58.87;98324.16;5076939;28;20133;-73
2022/04/06 08:29:36;;;;;;;5.63;1.60;;;;;;;2.35;60.05;98323.41;5093809;28;20078;-73
2022/04/06 08:32:21;;;;;;;2.15;1.17;;;;;;;2.28;60.02;98322.13;5108084;28;20469;-72
2022/04/06 08:35:08;;;;;;;3.65;1.30;;;;;;;2.33;60.01;98319.38;5099738;28;20112;-73
2022/04/06 08:37:52;;;;;;;2.55;1.17;;;;;;;2.39;59.90;98329.84;5115587;28;20050;-73
2022/04/06 08:40:18;;;;;;;2.40;1.10;;;;;;;2.42;59.42;98325.75;5115350;28;20040;-73
2022/04/06 08:42:46;;;;;;;4.85;1.58;;;;;;;2.40;59.63;98325.25;5097132;28;20521;-73
2022/04/06 08:45:32;;;;;;;1.65;1.08;;;;;;;2.38;59.18;98330.94;5113704;28;20566;-74
2022/04/06 08:47:59;;;;;;;1.30;1.10;;;;;;;2.29;58.79;98337.25;5076621;28;20101;-73
2022/04/06 08:50:28;;;;;;;1.38;1.17;;;;;;;2.31;58.99;98335.88;5094568;28;20480;-73
2022/04/06 08:52:56;;;;;;;2.45;1.45;;;;;;;2.43;59.97;98330.09;5094215;28;20123;-74
2022/04/06 08:55:21;;;;;;;2.97;1.38;;;;;;;2.52;59.55;98341.91;5094528;28;20516;-73
2022/04/06 08:58:05;;;;;;;2.08;1.20;;;;;;;2.43;59.88;98346.34;5094408;28;20062;-73
2022/04/06 09:00:50;;;;;;;2.83;1.30;;;;;;;2.36;59.94;98343.94;5097230;28;20061;-73
2022/04/06 09:03:34;;;;;;;2.03;1.20;;;;;;;2.29;58.90;98350.78;5114938;28;20046;-73
2022/04/06 09:06:19;;;;;;;1.20;0.70;;;;;;;2.19;58.73;98345.44;5115138;28;20095;-73
2022/04/06 09:08:47;;;;;;;1.67;0.80;;;;;;;2.06;58.13;98346.88;5101386;28;20509;-73
2022/04/06 09:11:18;;;;;;;1.25;0.80;;;;;;;2.02;58.11;98348.56;5104234;28;20035;-73
2022/04/06 09:14:03;;;;;;;1.00;0.80;;;;;;;2.06;58.63;98355.00;5094411;28;20050;-74
2022/04/06 09:17:00;;;;;;;1.02;0.80;;;;;;;2.15;58.38;98360.63;5094224;28;20055;-74
2022/04/06 09:19:46;;;;;;;2.63;1.00;;;;;;;2.14;59.80;98353.63;5094028;28;20177;-74
2022/04/06 09:22:30;;;;;;;0.90;0.90;;;;;;;2.14;59.74;98359.03;5079766;28;20063;-74
2022/04/06 09:25:19;;;;;;;1.98;1.00;;;;;;;2.02;60.64;98365.59;5093743;28;20054;-73
2022/04/06 09:28:11;;;;;;;1.30;1.08;;;;;;;2.07;60.78;98370.16;5093654;28;20104;-74
2022/04/06 09:30:44;;;;;;;2.03;1.20;;;;;;;2.06;61.63;98374.75;5094188;28;20036;-72
2022/04/06 09:33:21;;;;;;;1.30;0.82;;;;;;;2.03;61.44;98378.03;5114251;28;20043;-72
2022/04/06 09:35:48;;;;;;;1.10;0.90;;;;;;;2.03;61.50;98375.31;5076297;28;20028;-72
2022/04/06 09:38:32;;;;;;;1.42;0.85;;;;;;;2.05;62.17;98389.38;5111701;28;20050;-74
2022/04/06 09:41:19;;;;;;;1.38;1.00;;;;;;;2.07;61.85;98392.59;5085359;28;20051;-74
2022/04/06 09:47:38;;;;;;;2.65;0.80;;;;;;;1.97;62.08;98398.09;5093352;28;20141;-73
2022/04/06 09:50:20;;;;;;;1.55;0.93;;;;;;;1.77;64.71;98400.91;5107716;28;20054;-73
2022/04/06 09:52:47;;;;;;;1.15;1.00;;;;;;;1.72;65.85;98406.31;5058583;28;20474;-73
2022/04/06 09:55:15;;;;;;;2.08;1.00;;;;;;;1.67;67.78;98409.06;5094408;28;20036;-73
2022/04/06 09:58:01;;;;;;;2.28;1.40;;;;;;;1.64;69.07;98413.13;5084250;28;20138;-73
2022/04/06 10:00:46;;;;;;;3.25;1.35;;;;;;;1.48;70.29;98411.56;5078487;28;20059;-73
2022/04/06 10:03:30;;;;;;;2.90;1.48;;;;;;;1.32;70.98;98412.72;5082493;28;20046;-73
2022/04/06 10:06:15;;;;;;;1.80;1.33;;;;;;;1.23;71.53;98414.38;5090125;28;20055;-76
2022/04/06 10:09:01;;;;;;;4.85;1.60;;;;;;;1.20;72.15;98421.91;5113361;28;20092;-73
2022/04/06 10:11:46;;;;;;;1.80;1.30;;;;;;;1.11;72.69;98428.97;5097796;28;20109;-74
2022/04/06 10:14:12;;;;;;;2.33;1.60;;;;;;;1.00;73.27;98432.78;5108158;28;20040;-74
2022/04/06 10:16:38;;;;;;;4.05;1.50;;;;;;;0.93;73.95;98428.75;5093381;28;20079;-73
2022/04/06 10:19:30;;;;;;;1.58;1.38;;;;;;;0.91;74.85;98431.72;5105544;28;20078;-73
2022/04/06 10:22:26;;;;;;;1.35;1.20;;;;;;;0.94;75.64;98433.06;5081788;28;20521;-73
2022/04/06 10:25:26;;;;;;;1.52;1.40;;;;;;;0.98;75.73;98444.94;5092772;28;20104;-73
2022/04/06 10:28:11;;;;;;;1.17;0.80;;;;;;;0.97;75.66;98446.81;5112964;28;20100;-73
2022/04/06 10:31:19;;;;;;;1.40;0.95;;;;;;;0.81;73.99;98458.72;5097677;28;20051;-73
2022/04/06 10:33:45;;;;;;;;;;;;;;;0.79;74.55;98452.78;5095204;28;20039;-73
2022/04/06 10:36:20;;;;;;;1.20;0.90;;;;;;;0.97;74.96;98459.53;5113225;28;19923;-73
2022/04/06 10:39:05;;;;;;;2.63;1.45;;;;;;;0.98;73.91;98467.34;5112525;28;20092;-73
2022/04/06 10:42:14;;;;;;;1.10;0.80;;;;;;;0.99;74.06;98468.97;5112867;28;20440;-72
2022/04/06 10:44:59;;;;;;;0.80;0.80;;;;;;;0.69;73.86;98475.19;5110557;28;20471;-73
2022/04/06 10:48:09;;;;;;;1.45;1.00;;;;;;;0.68;75.30;98484.34;5077226;28;20147;-73
2022/04/06 10:51:30;;;;;;;2.17;1.17;;;;;;;0.51;75.64;98491.91;5092312;28;20047;-73
2022/04/06 10:53:56;;;;;;;1.77;1.23;;;;;;;0.54;77.17;98494.91;5074520;28;20660;-73
2022/04/06 10:56:22;;;;;;;1.65;0.93;;;;;;;0.50;77.76;98499.19;5078377;28;20044;-73
2022/04/06 10:58:57;;;;;;;1.50;0.80;;;;;;;0.53;78.51;98498.66;5083506;28;20059;-74
2022/04/06 11:01:45;;;;;;;2.25;0.80;;;;;;;0.65;79.20;98500.28;5084217;27;20531;-73
2022/04/06 11:04:35;;;;;;;;;;;;;;;0.67;79.24;98504.31;5103640;28;20464;-73
2022/04/06 11:10:38;;;;;;;2.65;1.08;;;;;;;0.59;79.56;98523.75;5103353;27;20047;-74
2022/04/06 11:13:25;;;;;;;2.47;1.88;;;;;;;0.39;78.59;98524.53;5073278;28;20051;-74
2022/04/06 11:15:51;;;;;;;2.35;1.30;;;;;;;0.07;78.73;98538.19;5105475;27;20397;-73
2022/04/06 11:18:49;;;;;;;1.15;0.80;;;;;;;-0.15;79.02;98538.38;5101608;28;20512;-73
2022/04/06 11:21:34;;;;;;;1.20;0.70;;;;;;;-0.27;78.76;98543.19;5092083;28;20113;-74
2022/04/06 11:24:20;;;;;;;2.33;0.90;;;;;;;-0.45;78.33;98552.50;5091785;28;20050;-74
2022/04/06 11:27:04;;;;;;;2.65;1.00;;;;;;;-0.44;78.55;98558.72;5096203;28;20058;-73
2022/04/06 11:29:48;;;;;;;2.03;0.70;;;;;;;-0.41;78.11;98552.78;5101084;28;20065;-73
2022/04/06 11:32:35;;;;;;;2.28;0.90;;;;;;;-0.33;78.74;98560.41;5076039;28;20078;-74
2022/04/06 11:35:06;;;;;;;1.38;1.17;;;;;;;-0.20;78.36;98561.78;5081551;28;20040;-74
2022/04/06 11:37:32;;;;;;;2.20;1.35;;;;;;;0.09;78.65;98567.59;5099193;28;20032;-72
2022/04/06 11:39:59;;;;;;;1.70;1.10;;;;;;;0.31;78.27;98554.72;5054582;28;20092;-74
2022/04/06 11:42:54;;;;;;;1.00;0.88;;;;;;;0.45;76.24;98568.53;5091964;28;20070;-73
2022/04/06 11:45:44;;;;;;;3.00;1.35;;;;;;;0.47;75.71;98569.88;5075871;28;20112;-73
2022/04/06 11:48:39;;;;;;;1.30;1.20;;;;;;;0.50;73.79;98573.94;5104561;28;20524;-75
2022/04/06 11:51:26;;;;;;;2.05;1.35;;;;;;;0.54;73.23;98567.75;5087613;28;20065;-76
2022/04/06 11:54:10;;;;;;;3.67;1.95;;;;;;;0.49;71.73;98572.31;5078931;28;20109;-80
2022/04/06 11:56:36;;;;;;;2.67;1.25;;;;;;;0.50;71.53;98579.31;5073858;28;20048;-80
2022/04/06 11:59:01;;;;;;;1.88;1.20;;;;;;;0.68;72.61;98578.81;5106762;27;20126;-79
2022/04/06 12:01:40;;;;;;;1.73;1.15;;;;;;;0.75;71.04;98581.28;5132169;27;20409;-76
2022/04/06 12:04:12;;;;;;;1.90;1.10;;;;;;;0.72;69.84;98587.22;5082310;28;20493;-79
2022/04/06 12:06:38;;;;;;;3.72;1.00;;;;;;;0.75;70.30;98592.09;5102021;28;20036;-78
2022/04/06 12:09:06;;;;;;;1.40;1.00;;;;;;;0.72;68.98;98598.03;5092150;28;20036;-79